Time;durP1;ratioP1;P1;durP2;ratioP2;P2;SDS_P1;SDS_P2;PMS_P1;PMS_P2;Temp;Humidity;BMP_temperature;BMP_pressure;BME280_temperature;BME280_humidity;BME280_pressure;Samples;Min_cycle;Max_cycle;Signal;HPM_P1;HPM_P2
2022/11/27 00:00:25;;;;;;;24.27;9.55;;;5.50;99.90;;;;;;5066949;28;20489;-74
2022/11/27 00:02:50;;;;;;;27.08;11.20;;;4.10;99.90;;;;;;5066253;28;20031;-75
2022/11/27 00:05:16;;;;;;;21.00;9.70;;;3.80;99.90;;;;;;5048319;28;20313;-74
2022/11/27 00:07:42;;;;;;;24.58;11.07;;;5.00;99.90;;;;;;5066507;28;20107;-74
2022/11/27 00:10:08;;;;;;;27.33;11.05;;;3.80;99.90;;;;;;5066714;28;20032;-74
2022/11/27 00:12:34;;;;;;;21.10;10.15;;;3.90;99.90;;;;;;5066352;28;20374;-74
2022/11/27 00:14:59;;;;;;;15.27;7.78;;;4.40;99.90;;;;;;5066920;28;20028;-75
2022/11/27 00:17:25;;;;;;;20.83;9.90;;;3.80;99.90;;;;;;5066362;28;20024;-74
2022/11/27 00:19:51;;;;;;;15.60;8.13;;;5.20;99.90;;;;;;5065816;28;20070;-74
2022/11/27 00:22:17;;;;;;;17.75;7.95;;;5.50;99.90;;;;;;5065681;28;20499;-74
2022/11/27 00:24:43;;;;;;;11.63;5.65;;;3.70;99.90;;;;;;5064738;28;20416;-76
2022/11/27 00:27:09;;;;;;;19.38;7.50;;;4.00;99.90;;;;;;5064963;28;20041;-74
2022/11/27 00:29:35;;;;;;;14.48;7.97;;;5.20;99.90;;;;;;5064850;28;20024;-74
2022/11/27 00:32:01;;;;;;;19.15;8.00;;;4.40;99.90;;;;;;5046777;28;20033;-74
2022/11/27 00:34:26;;;;;;;13.60;7.03;;;3.70;99.90;;;;;;5065003;28;20790;-74
2022/11/27 00:36:52;;;;;;;18.30;7.88;;;3.70;99.90;;;;;;5066374;28;20025;-74
2022/11/27 00:39:18;;;;;;;32.95;12.00;;;3.70;99.90;;;;;;5084158;28;20024;-74
2022/11/27 00:41:44;;;;;;;53.20;13.20;;;3.60;99.90;;;;;;5089122;28;20074;-73
2022/11/27 00:44:12;;;;;;;50.92;14.25;;;3.50;99.90;;;;;;5089026;28;20126;-74
2022/11/27 00:46:39;;;;;;;48.67;12.68;;;3.40;99.90;;;;;;5069905;28;20569;-74
2022/11/27 00:49:05;;;;;;;24.90;10.68;;;5.80;99.90;;;;;;5088996;28;20032;-73
2022/11/27 00:51:31;;;;;;;36.95;9.95;;;5.20;99.90;;;;;;5087721;28;20040;-74
2022/11/27 00:53:57;;;;;;;19.52;10.18;;;3.10;99.90;;;;;;5087790;28;20036;-75
2022/11/27 00:56:26;;;;;;;41.47;14.52;;;4.40;99.90;;;;;;5087954;28;20088;-74
2022/11/27 00:58:53;;;;;;;35.97;12.43;;;2.90;99.90;;;;;;5088650;28;20024;-74
2022/11/27 01:01:24;;;;;;;52.17;14.60;;;2.90;99.90;;;;;;5089229;28;20273;-74
2022/11/27 01:03:50;;;;;;;28.55;9.85;;;2.80;99.90;;;;;;5089659;28;20024;-74
2022/11/27 01:06:17;;;;;;;40.50;11.88;;;2.80;99.90;;;;;;5089604;28;20024;-74
2022/11/27 01:08:43;;;;;;;47.58;12.85;;;3.10;99.90;;;;;;5070990;28;20024;-74
2022/11/27 01:11:18;;;;;;;42.33;13.48;;;2.80;99.90;;;;;;5089337;28;20111;-74
2022/11/27 01:13:44;;;;;;;129.43;23.23;;;3.00;99.90;;;;;;5089575;28;20508;-74
2022/11/27 01:16:12;;;;;;;43.75;12.95;;;3.30;99.90;;;;;;5089157;28;20040;-74
2022/11/27 01:18:40;;;;;;;35.47;8.50;;;2.60;99.90;;;;;;5089435;28;20071;-74
2022/11/27 01:21:07;;;;;;;23.42;10.00;;;3.50;99.90;;;;;;5088490;28;20499;-74
2022/11/27 01:23:32;;;;;;;20.75;8.75;;;3.00;99.90;;;;;;5070990;28;20529;-74
2022/11/27 01:26:06;;;;;;;14.82;7.82;;;3.30;99.90;;;;;;5089281;28;20472;-74
2022/11/27 01:28:33;;;;;;;16.58;7.80;;;2.90;99.90;;;;;;5088741;28;20499;-74
2022/11/27 01:31:08;;;;;;;31.38;9.13;;;3.00;99.90;;;;;;5089378;28;20024;-74
2022/11/27 01:33:33;;;;;;;46.35;9.02;;;2.60;99.90;;;;;;5089039;28;20202;-74
2022/11/27 01:36:01;;;;;;;22.67;8.77;;;2.60;99.90;;;;;;5088637;28;20203;-74
2022/11/27 01:38:29;;;;;;;20.38;9.10;;;2.70;99.90;;;;;;5062087;28;20151;-74
2022/11/27 01:41:07;;;;;;;26.45;9.48;;;3.10;99.90;;;;;;5068352;28;20021;-75
2022/11/27 01:43:52;;;;;;;34.00;7.53;;;2.60;99.90;;;;;;5068249;28;20021;-74
2022/11/27 01:46:39;;;;;;;45.17;9.50;;;2.60;99.90;;;;;;5068236;28;20615;-74
2022/11/27 01:49:29;;;;;;;26.25;8.40;;;2.50;99.90;;;;;;5049115;28;20032;-74
2022/11/27 01:52:03;;;;;;;38.83;10.75;;;3.20;99.90;;;;;;5068153;28;20300;-74
2022/11/27 01:54:33;;;;;;;29.45;8.48;;;2.50;99.90;;;;;;5068367;28;20028;-74
2022/11/27 01:57:03;;;;;;;18.40;7.25;;;2.40;99.90;;;;;;5049960;28;20047;-75
2022/11/27 01:59:29;;;;;;;18.23;7.30;;;2.50;99.90;;;;;;5068561;28;20587;-74
2022/11/27 02:01:55;;;;;;;28.08;10.13;;;2.90;99.90;;;;;;5068082;28;20043;-74
2022/11/27 02:04:20;;;;;;;18.02;6.78;;;2.50;99.90;;;;;;5067479;28;20485;-74
2022/11/27 02:06:46;;;;;;;31.08;8.82;;;2.50;99.90;;;;;;5068046;28;20033;-74
2022/11/27 02:09:12;;;;;;;21.23;7.53;;;2.70;99.90;;;;;;5049983;28;20056;-74
2022/11/27 02:11:56;;;;;;;16.15;8.40;;;2.50;99.90;;;;;;5068061;28;20029;-73
2022/11/27 02:14:47;;;;;;;16.55;8.20;;;2.50;99.90;;;;;;5067880;28;20508;-74
2022/11/27 02:17:19;;;;;;;21.23;7.88;;;2.50;99.90;;;;;;5067531;28;20480;-74
2022/11/27 02:20:14;;;;;;;17.25;7.35;;;2.50;99.90;;;;;;5067663;28;20024;-74
2022/11/27 02:23:01;;;;;;;27.15;8.77;;;2.50;99.90;;;;;;5049608;28;20020;-75
2022/11/27 02:25:58;;;;;;;13.60;6.25;;;2.50;99.90;;;;;;5067301;28;20073;-74
2022/11/27 02:28:24;;;;;;;13.30;8.13;;;2.50;99.90;;;;;;5067564;28;20032;-75
2022/11/27 02:30:56;;;;;;;12.13;5.95;;;2.50;99.90;;;;;;5049522;28;20119;-74
2022/11/27 02:33:22;;;;;;;15.30;7.50;;;2.70;99.90;;;;;;5049543;28;20054;-74
2022/11/27 02:36:10;;;;;;;17.00;6.43;;;2.70;99.90;;;;;;5049342;28;20132;-74
2022/11/27 02:39:06;;;;;;;14.82;7.80;;;2.50;99.90;;;;;;5077300;28;20064;-74
2022/11/27 02:41:48;;;;;;;13.52;8.45;;;3.80;99.90;;;;;;5077072;28;20408;-75
2022/11/27 02:44:15;;;;;;;20.92;10.05;;;3.60;99.90;;;;;;5087620;28;20488;-74
2022/11/27 02:46:41;;;;;;;10.07;6.82;;;2.60;99.90;;;;;;5087106;28;20306;-74
2022/11/27 02:49:11;;;;;;;12.50;7.18;;;3.90;99.90;;;;;;5087104;28;20027;-74
2022/11/27 02:51:49;;;;;;;14.07;7.15;;;3.40;99.90;;;;;;5087614;28;20064;-74
2022/11/27 02:54:22;;;;;;;25.35;11.70;;;2.40;99.90;;;;;;5087482;28;20020;-74
2022/11/27 02:56:50;;;;;;;22.23;8.88;;;2.40;99.90;;;;;;5069525;28;20028;-75
2022/11/27 02:59:18;;;;;;;14.80;8.65;;;2.40;99.90;;;;;;5087139;28;20702;-74
2022/11/27 03:01:50;;;;;;;16.83;8.02;;;2.50;99.90;;;;;;5086932;28;20024;-74
2022/11/27 03:04:21;;;;;;;17.38;8.90;;;3.20;99.90;;;;;;5087602;28;20015;-74
2022/11/27 03:06:52;;;;;;;10.05;6.32;;;2.30;99.90;;;;;;5087171;28;20419;-74
2022/11/27 03:09:30;;;;;;;13.85;8.43;;;2.30;99.90;;;;;;5079982;28;20020;-74
2022/11/27 03:11:56;;;;;;;18.67;8.38;;;2.20;99.90;;;;;;5068282;28;20056;-74
2022/11/27 03:14:23;;;;;;;21.05;9.52;;;3.80;99.90;;;;;;5068391;28;20103;-75
2022/11/27 03:17:08;;;;;;;12.93;8.45;;;3.00;99.90;;;;;;5050102;28;20029;-75
2022/11/27 03:19:47;;;;;;;18.73;7.85;;;2.20;99.90;;;;;;5068332;28;20612;-75
2022/11/27 03:22:13;;;;;;;20.88;8.27;;;2.20;99.90;;;;;;5068080;28;20029;-75
2022/11/27 03:24:39;;;;;;;12.02;6.78;;;2.30;99.90;;;;;;5068268;28;20043;-75
2022/11/27 03:27:05;;;;;;;18.38;10.27;;;2.90;99.90;;;;;;5052110;28;20044;-74
2022/11/27 03:29:46;;;;;;;11.77;7.00;;;2.40;99.90;;;;;;5069718;28;20032;-75
2022/11/27 03:32:13;;;;;;;16.48;9.05;;;2.40;99.90;;;;;;5070064;28;20111;-74
2022/11/27 03:34:39;;;;;;;20.45;7.60;;;2.80;99.90;;;;;;5069458;28;20024;-74
2022/11/27 03:37:05;;;;;;;11.60;6.55;;;2.40;99.90;;;;;;5069458;28;20035;-75
2022/11/27 03:39:32;;;;;;;16.55;7.55;;;2.50;99.90;;;;;;5069541;28;20369;-75
2022/11/27 03:42:03;;;;;;;13.02;7.88;;;3.40;99.90;;;;;;5069975;28;20540;-75
2022/11/27 03:45:15;;;;;;;14.70;8.30;;;2.50;99.90;;;;;;5069638;28;20095;-74
2022/11/27 03:47:43;;;;;;;13.90;7.20;;;2.50;99.90;;;;;;5051877;28;20020;-74
2022/11/27 03:50:20;;;;;;;15.40;9.30;;;2.50;99.90;;;;;;5069728;28;20021;-75
2022/11/27 03:52:49;;;;;;;14.90;7.30;;;2.60;99.90;;;;;;5051590;28;20037;-75
2022/11/27 03:55:41;;;;;;;12.70;6.67;;;2.60;99.90;;;;;;5051428;28;20027;-74
2022/11/27 03:58:42;;;;;;;15.30;8.32;;;2.60;99.90;;;;;;5051339;28;20263;-74
2022/11/27 04:01:13;;;;;;;17.08;9.80;;;2.60;99.90;;;;;;5051626;28;20481;-74
2022/11/27 04:03:39;;;;;;;14.98;7.47;;;2.70;99.90;;;;;;5069424;28;20116;-75
2022/11/27 04:06:05;;;;;;;18.52;8.68;;;2.60;99.90;;;;;;5051049;28;20116;-75
2022/11/27 04:08:30;;;;;;;16.10;7.63;;;2.60;99.90;;;;;;5051261;28;20112;-75
2022/11/27 04:10:56;;;;;;;15.23;7.97;;;3.80;99.90;;;;;;5051654;28;20139;-74
2022/11/27 04:13:22;;;;;;;18.73;9.23;;;2.60;99.90;;;;;;5055229;28;20048;-74
2022/11/27 04:15:47;;;;;;;15.52;7.75;;;2.70;99.90;;;;;;5073011;28;20050;-75
2022/11/27 04:18:13;;;;;;;16.55;8.63;;;2.70;99.90;;;;;;5055163;28;20021;-74
2022/11/27 04:20:39;;;;;;;15.00;7.63;;;4.70;99.90;;;;;;5073328;28;20031;-74
2022/11/27 04:23:04;;;;;;;13.30;7.75;;;2.70;99.90;;;;;;5073525;28;20107;-75
2022/11/27 04:25:30;;;;;;;14.80;7.85;;;3.50;99.90;;;;;;5073079;28;20445;-74
2022/11/27 04:27:56;;;;;;;15.05;7.57;;;;;;;;;;5072951;28;20024;-75
2022/11/27 04:30:22;;;;;;;16.83;6.65;;;2.60;99.90;;;;;;5073096;28;20029;-74
2022/11/27 04:32:47;;;;;;;15.85;7.70;;;2.60;99.90;;;;;;5072781;28;20017;-74
2022/11/27 04:35:13;;;;;;;15.27;7.00;;;3.50;99.90;;;;;;5072609;28;20029;-75
2022/11/27 04:37:39;;;;;;;13.27;7.05;;;2.60;99.90;;;;;;5072816;28;20408;-75
2022/11/27 04:40:05;;;;;;;13.77;7.75;;;2.90;99.90;;;;;;5054756;28;20028;-75
2022/11/27 04:42:31;;;;;;;12.45;7.07;;;2.60;99.90;;;;;;5072578;28;20032;-74
2022/11/27 04:44:56;;;;;;;14.93;7.55;;;3.10;99.90;;;;;;5073020;28;20025;-74
2022/11/27 04:47:22;;;;;;;17.17;8.13;;;3.60;99.90;;;;;;5072733;28;20441;-74
2022/11/27 04:49:48;;;;;;;14.18;6.18;;;3.70;99.90;;;;;;5072571;28;20032;-75
2022/11/27 04:52:13;;;;;;;11.65;6.43;;;2.80;99.90;;;;;;5072508;28;20646;-74
2022/11/27 04:54:39;;;;;;;11.93;6.50;;;2.50;99.90;;;;;;5072397;28;20071;-74
2022/11/27 04:57:05;;;;;;;12.75;6.50;;;3.30;99.90;;;;;;5054636;28;20489;-75
2022/11/27 04:59:31;;;;;;;15.40;6.47;;;3.10;99.90;;;;;;5072785;28;20116;-75
2022/11/27 05:01:57;;;;;;;9.70;6.03;;;2.60;99.90;;;;;;5072891;28;20084;-75
2022/11/27 05:04:23;;;;;;;18.15;7.38;;;2.60;99.90;;;;;;5054394;28;20041;-75
2022/11/27 05:06:48;;;;;;;15.07;7.00;;;2.60;99.90;;;;;;5054677;28;20032;-75
2022/11/27 05:09:16;;;;;;;11.70;5.65;;;3.00;99.90;;;;;;5072296;28;20149;-75
2022/11/27 05:11:42;;;;;;;9.15;5.70;;;2.40;99.90;;;;;;5054021;28;20037;-75
2022/11/27 05:14:13;;;;;;;13.80;7.43;;;3.10;99.90;;;;;;5054647;28;20024;-75
2022/11/27 05:16:40;;;;;;;11.88;7.25;;;2.40;99.90;;;;;;5054311;28;20048;-74
2022/11/27 05:19:06;;;;;;;13.38;6.13;;;;;;;;;;5072282;28;20614;-74
2022/11/27 05:21:32;;;;;;;11.50;6.53;;;2.40;99.90;;;;;;5072071;28;20028;-75
2022/11/27 05:23:57;;;;;;;16.40;8.98;;;2.90;99.90;;;;;;5071858;28;20075;-74
2022/11/27 05:26:23;;;;;;;13.82;6.72;;;4.10;99.90;;;;;;5071924;28;20028;-74
2022/11/27 05:28:49;;;;;;;16.67;7.50;;;2.40;99.90;;;;;;5071710;28;20035;-75
2022/11/27 05:31:14;;;;;;;15.73;7.53;;;2.50;99.90;;;;;;5071745;28;20024;-74
2022/11/27 05:33:40;;;;;;;16.45;7.22;;;2.30;99.90;;;;;;5053916;28;20424;-74
2022/11/27 05:36:06;;;;;;;11.73;6.60;;;2.30;99.90;;;;;;5071402;28;20398;-74
2022/11/27 05:38:31;;;;;;;12.32;6.30;;;2.30;99.90;;;;;;5072171;28;20025;-74
2022/11/27 05:40:57;;;;;;;20.73;8.75;;;4.10;99.90;;;;;;5071643;28;20458;-75
2022/11/27 05:43:22;;;;;;;10.90;6.45;;;2.10;99.90;;;;;;5071476;28;20095;-75
2022/11/27 05:45:48;;;;;;;16.75;7.25;;;3.60;99.90;;;;;;5071426;28;20552;-75
2022/11/27 05:48:14;;;;;;;13.52;6.07;;;2.10;99.90;;;;;;5071578;28;20020;-75
2022/11/27 05:50:39;;;;;;;10.80;7.22;;;2.40;99.90;;;;;;5071145;28;20414;-75
2022/11/27 05:53:05;;;;;;;11.07;6.38;;;2.00;99.90;;;;;;5071688;28;20035;-74
2022/11/27 05:55:31;;;;;;;11.77;6.28;;;2.50;99.90;;;;;;5071131;28;20036;-75
2022/11/27 05:57:56;;;;;;;13.40;6.40;;;2.00;99.90;;;;;;5071510;28;20423;-75
2022/11/27 06:00:22;;;;;;;12.73;5.78;;;1.90;99.90;;;;;;5071269;28;20026;-75
2022/11/27 06:02:48;;;;;;;13.70;6.47;;;1.90;99.90;;;;;;5071099;28;20083;-75
2022/11/27 06:05:14;;;;;;;12.73;7.93;;;2.60;99.90;;;;;;5070861;28;20405;-75
2022/11/27 06:07:39;;;;;;;11.27;5.63;;;1.90;99.90;;;;;;5071137;28;20020;-74
2022/11/27 06:10:05;;;;;;;11.38;5.85;;;2.80;99.90;;;;;;5070678;28;20165;-75
2022/11/27 06:12:31;;;;;;;13.25;5.35;;;1.80;99.90;;;;;;5071106;28;20027;-75
2022/11/27 06:14:57;;;;;;;10.90;5.40;;;1.80;99.90;;;;;;5069745;28;20028;-74
2022/11/27 06:17:23;;;;;;;12.63;5.43;;;2.80;99.90;;;;;;5069938;28;20358;-74
2022/11/27 06:19:48;;;;;;;10.23;5.78;;;2.40;99.90;;;;;;5069706;28;20118;-75
2022/11/27 06:22:14;;;;;;;11.40;6.28;;;1.60;99.90;;;;;;5068951;28;20066;-75
2022/11/27 06:24:40;;;;;;;9.98;5.88;;;1.80;99.90;;;;;;5070144;28;20031;-75
2022/11/27 06:27:05;;;;;;;11.60;5.90;;;3.00;99.90;;;;;;5069974;28;20028;-74
2022/11/27 06:29:31;;;;;;;13.38;6.65;;;2.00;99.90;;;;;;5069591;28;20107;-75
2022/11/27 06:31:56;;;;;;;8.48;4.63;;;1.30;99.90;;;;;;5069692;28;20112;-75
2022/11/27 06:34:22;;;;;;;10.98;5.80;;;3.10;99.90;;;;;;5068492;28;20028;-74
2022/11/27 06:36:49;;;;;;;15.07;8.52;;;1.20;99.90;;;;;;5070091;28;20039;-74
2022/11/27 06:39:15;;;;;;;11.60;5.93;;;1.20;99.90;;;;;;5070329;28;20013;-74
2022/11/27 06:41:41;;;;;;;13.60;6.70;;;2.00;99.90;;;;;;5070132;28;20021;-74
2022/11/27 06:44:07;;;;;;;13.05;6.90;;;1.70;99.90;;;;;;5069132;28;20027;-74
2022/11/27 06:46:33;;;;;;;14.77;6.57;;;1.80;99.90;;;;;;5068633;28;20111;-75
2022/11/27 06:49:00;;;;;;;17.38;6.82;;;2.40;99.90;;;;;;5068402;28;20505;-75
2022/11/27 06:51:28;;;;;;;10.88;6.85;;;1.90;99.90;;;;;;5068147;28;20056;-75
2022/11/27 06:53:54;;;;;;;12.45;7.50;;;2.90;99.90;;;;;;5068801;28;20021;-75
2022/11/27 06:56:23;;;;;;;14.45;6.40;;;2.50;99.90;;;;;;5068543;28;20532;-75
2022/11/27 06:58:53;;;;;;;9.20;6.25;;;1.40;99.90;;;;;;5069318;28;20099;-75
2022/11/27 07:01:19;;;;;;;11.23;6.22;;;1.30;99.90;;;;;;5070045;28;20073;-75
2022/11/27 07:03:45;;;;;;;11.48;6.93;;;1.70;99.90;;;;;;5069876;28;20025;-75
2022/11/27 07:06:14;;;;;;;11.18;5.47;;;2.10;99.90;;;;;;5069835;28;20024;-75
2022/11/27 07:08:40;;;;;;;12.07;6.40;;;1.50;99.90;;;;;;5070175;28;20141;-74
2022/11/27 07:11:17;;;;;;;21.38;10.07;;;2.10;99.90;;;;;;5070081;28;20099;-76
2022/11/27 07:13:43;;;;;;;12.75;6.47;;;1.60;99.90;;;;;;5070117;28;20032;-76
2022/11/27 07:16:12;;;;;;;16.77;8.60;;;2.10;99.90;;;;;;5051655;28;20462;-76
2022/11/27 07:18:40;;;;;;;14.32;9.40;;;2.60;99.90;;;;;;5051467;28;20024;-76
2022/11/27 07:21:06;;;;;;;15.18;6.25;;;1.80;99.90;;;;;;5071495;28;20477;-75
2022/11/27 07:23:32;;;;;;;16.92;9.38;;;2.80;99.90;;;;;;5059787;28;20016;-75
2022/11/27 07:25:58;;;;;;;13.70;7.00;;;2.00;99.90;;;;;;5060656;28;20484;-76
2022/11/27 07:28:23;;;;;;;12.73;6.65;;;1.80;99.90;;;;;;5079472;28;20575;-75
2022/11/27 07:30:57;;;;;;;11.27;6.65;;;2.10;99.90;;;;;;5077734;28;20020;-76
2022/11/27 07:33:24;;;;;;;10.00;6.25;;;2.60;99.90;;;;;;5077919;28;20122;-76
2022/11/27 07:35:50;;;;;;;9.30;6.47;;;2.40;99.90;;;;;;5079364;28;20062;-76
2022/11/27 07:38:15;;;;;;;11.90;6.75;;;2.70;99.90;;;;;;5078151;28;20048;-75
2022/11/27 07:40:41;;;;;;;12.30;6.05;;;2.00;99.90;;;;;;5078310;28;20024;-75
2022/11/27 07:43:06;;;;;;;11.50;6.30;;;2.00;99.90;;;;;;5079823;28;20027;-76
2022/11/27 07:45:32;;;;;;;13.85;6.05;;;2.60;99.90;;;;;;5076147;28;20492;-76
2022/11/27 07:47:57;;;;;;;15.23;5.63;;;3.70;99.90;;;;;;5066384;28;20028;-74
2022/11/27 07:50:23;;;;;;;12.07;6.03;;;2.10;99.90;;;;;;5080891;28;20082;-76
2022/11/27 07:52:49;;;;;;;12.02;4.95;;;;;;;;;;5065528;28;20509;-80
2022/11/27 07:55:15;;;;;;;7.22;5.22;;;1.80;99.90;;;;;;5064668;28;20033;-83
2022/11/27 07:57:41;;;;;;;8.32;5.85;;;2.00;99.90;;;;;;5094870;28;20201;-77
2022/11/27 08:00:08;;;;;;;9.13;5.15;;;3.40;99.90;;;;;;5099896;28;20019;-76
2022/11/27 08:02:33;;;;;;;10.75;6.68;;;2.10;99.90;;;;;;5101256;28;20023;-77
2022/11/27 08:04:59;;;;;;;7.85;4.70;;;2.00;99.90;;;;;;5101478;28;20054;-76
2022/11/27 08:07:28;;;;;;;8.70;5.53;;;1.90;99.90;;;;;;5075035;28;20469;-76
2022/11/27 08:09:56;;;;;;;12.80;5.50;;;2.10;99.90;;;;;;5085919;28;20031;-76
2022/11/27 08:12:22;;;;;;;7.60;4.50;;;2.90;99.90;;;;;;5094529;28;20104;-76
2022/11/27 08:14:48;;;;;;;9.25;5.20;;;2.90;99.90;;;;;;5063715;28;20038;-77
2022/11/27 08:17:14;;;;;;;9.90;5.72;;;2.50;99.90;;;;;;5063641;28;20124;-76
2022/11/27 08:19:39;;;;;;;8.45;5.30;;;1.80;99.90;;;;;;5063335;28;20313;-76
2022/11/27 08:22:05;;;;;;;8.82;5.90;;;2.50;99.90;;;;;;5080629;28;20048;-76
2022/11/27 08:24:32;;;;;;;8.55;4.47;;;3.50;99.90;;;;;;5062412;28;20065;-76
2022/11/27 08:26:57;;;;;;;13.43;5.28;;;1.90;99.90;;;;;;5063172;28;20089;-76
2022/11/27 08:29:25;;;;;;;10.35;5.63;;;1.90;99.90;;;;;;5062139;28;20357;-77
2022/11/27 08:31:50;;;;;;;10.30;5.20;;;1.90;99.90;;;;;;5062281;28;20078;-75
2022/11/27 08:34:16;;;;;;;13.82;7.13;;;2.10;99.90;;;;;;5079284;28;20036;-76
2022/11/27 08:36:42;;;;;;;11.68;6.68;;;;;;;;;;5061604;28;20332;-76
2022/11/27 08:39:08;;;;;;;14.27;6.70;;;2.00;99.90;;;;;;5079425;28;20042;-76
2022/11/27 08:41:33;;;;;;;15.70;7.65;;;2.10;99.90;;;;;;5080276;28;20380;-77
2022/11/27 08:43:59;;;;;;;15.07;7.53;;;2.20;99.90;;;;;;5062847;28;20055;-76
2022/11/27 08:46:24;;;;;;;17.90;7.88;;;2.60;99.90;;;;;;5079598;28;20217;-76
2022/11/27 08:48:50;;;;;;;14.13;8.32;;;2.40;99.90;;;;;;5081062;28;20032;-76
2022/11/27 08:51:16;;;;;;;9.93;7.35;;;3.00;99.90;;;;;;5102611;28;20048;-78
2022/11/27 08:53:44;;;;;;;15.20;7.80;;;3.00;99.90;;;;;;5085130;28;20046;-77
2022/11/27 08:56:17;;;;;;;18.95;8.10;;;3.70;99.90;;;;;;5081315;28;20108;-76
2022/11/27 08:58:43;;;;;;;14.52;8.20;;;3.40;99.90;;;;;;5094431;28;20016;-75
2022/11/27 09:01:12;;;;;;;15.00;7.65;;;3.90;99.90;;;;;;5101977;28;20138;-76
2022/11/27 09:03:38;;;;;;;13.88;6.60;;;5.50;99.90;;;;;;5081081;28;20027;-76
2022/11/27 09:06:09;;;;;;;13.63;7.25;;;4.60;99.90;;;;;;5083507;28;20032;-76
2022/11/27 09:08:35;;;;;;;12.05;8.02;;;4.50;99.90;;;;;;5102368;28;20058;-76
2022/11/27 09:11:03;;;;;;;17.83;7.95;;;4.90;99.90;;;;;;5101352;28;20036;-76
2022/11/27 09:13:28;;;;;;;11.20;6.60;;;5.40;99.90;;;;;;5101633;28;20345;-78
2022/11/27 09:15:56;;;;;;;13.40;6.32;;;5.20;99.90;;;;;;5087354;28;20032;-75
2022/11/27 09:18:21;;;;;;;10.82;4.82;;;5.40;99.90;;;;;;5062595;28;20329;-77
2022/11/27 09:21:01;;;;;;;9.32;5.30;;;5.30;99.90;;;;;;5067205;28;20078;-76
2022/11/27 09:23:28;;;;;;;7.75;4.63;;;5.40;99.90;;;;;;5098699;28;20208;-77
2022/11/27 09:25:57;;;;;;;11.07;6.30;;;5.50;99.90;;;;;;5080989;28;20258;-77
2022/11/27 09:28:22;;;;;;;9.38;5.00;;;5.60;99.90;;;;;;5099806;28;20024;-77
2022/11/27 09:30:53;;;;;;;8.95;4.57;;;6.60;99.90;;;;;;5099849;28;20247;-76
2022/11/27 09:33:18;;;;;;;6.72;4.93;;;5.90;99.90;;;;;;5100540;28;20016;-76
2022/11/27 09:35:44;;;;;;;9.02;4.93;;;6.60;99.90;;;;;;5081363;28;20040;-77
2022/11/27 09:38:09;;;;;;;7.68;4.53;;;6.00;99.90;;;;;;5079055;28;20035;-78
2022/11/27 09:40:35;;;;;;;6.55;4.15;;;6.10;99.90;;;;;;5065295;28;20018;-76
2022/11/27 09:43:08;;;;;;;7.38;4.03;;;6.10;99.90;;;;;;5070888;28;20422;-77
2022/11/27 09:45:40;;;;;;;7.78;4.05;;;6.10;99.90;;;;;;5060743;28;20119;-76
2022/11/27 09:48:19;;;;;;;7.22;4.57;;;6.30;99.90;;;;;;5069849;28;20024;-78
2022/11/27 09:50:50;;;;;;;10.77;3.83;;;6.30;99.90;;;;;;5081027;28;20241;-76
2022/11/27 09:53:42;;;;;;;5.53;4.13;;;6.40;99.90;;;;;;5078626;28;20043;-76
2022/11/27 09:56:13;;;;;;;8.07;3.90;;;6.40;99.90;;;;;;5066162;28;20040;-76
2022/11/27 09:58:38;;;;;;;6.35;3.20;;;6.50;99.90;;;;;;5049576;28;20028;-77
2022/11/27 10:01:28;;;;;;;6.45;3.70;;;6.50;99.90;;;;;;5064455;28;20051;-77
2022/11/27 10:03:54;;;;;;;8.98;4.55;;;6.50;99.90;;;;;;5048327;28;20033;-76
2022/11/27 10:06:26;;;;;;;5.47;3.78;;;6.60;99.90;;;;;;5048066;28;20166;-76
2022/11/27 10:09:16;;;;;;;9.15;3.83;;;6.60;99.90;;;;;;5048490;28;20017;-76
2022/11/27 10:12:09;;;;;;;6.63;4.53;;;6.60;99.90;;;;;;5050020;28;20111;-76
2022/11/27 10:14:52;;;;;;;12.23;4.07;;;6.70;99.90;;;;;;5068567;28;20052;-76
2022/11/27 10:17:27;;;;;;;6.13;4.10;;;6.70;99.90;;;;;;5068100;28;20333;-76
2022/11/27 10:20:15;;;;;;;6.20;3.60;;;6.80;99.90;;;;;;5049479;28;20048;-76
2022/11/27 10:23:02;;;;;;;6.57;4.78;;;7.20;99.90;;;;;;5067240;28;20028;-75
2022/11/27 10:25:40;;;;;;;6.15;3.92;;;7.20;99.90;;;;;;5049296;28;20472;-76
2022/11/27 10:28:33;;;;;;;10.23;4.70;;;7.40;99.90;;;;;;5049134;28;20078;-76
2022/11/27 10:31:12;;;;;;;7.90;3.80;;;7.40;99.90;;;;;;5049760;28;20024;-76
2022/11/27 10:33:52;;;;;;;9.07;5.00;;;7.70;99.90;;;;;;5056811;28;20034;-76
2022/11/27 10:36:42;;;;;;;8.07;4.55;;;7.90;99.90;;;;;;5083625;28;20152;-76
2022/11/27 10:39:19;;;;;;;16.30;7.30;;;7.90;99.90;;;;;;5063263;28;20027;-75
2022/11/27 10:41:52;;;;;;;8.25;3.63;;;8.00;99.90;;;;;;5069622;28;20028;-76
2022/11/27 10:44:32;;;;;;;7.30;4.05;;;7.80;99.90;;;;;;5069321;28;20024;-76
2022/11/27 10:47:02;;;;;;;7.10;4.78;;;7.70;99.90;;;;;;5050266;28;20021;-75
2022/11/27 10:49:28;;;;;;;7.32;3.78;;;7.80;99.90;;;;;;5067528;28;20027;-77
2022/11/27 10:51:54;;;;;;;8.07;4.30;;;7.80;99.90;;;;;;5056125;28;20072;-74
2022/11/27 10:54:33;;;;;;;8.02;5.03;;;7.60;99.90;;;;;;5077636;28;20107;-74
2022/11/27 10:57:34;;;;;;;8.68;5.20;;;7.40;99.90;;;;;;5067424;28;20109;-75
2022/11/27 11:00:09;;;;;;;9.10;4.57;;;7.40;99.90;;;;;;5077755;28;20411;-76
2022/11/27 11:02:37;;;;;;;6.00;4.53;;;7.30;99.90;;;;;;5056467;28;20231;-77
2022/11/27 11:05:33;;;;;;;6.20;4.35;;;7.30;99.90;;;;;;5079911;28;20020;-76
2022/11/27 11:08:13;;;;;;;9.05;3.92;;;7.40;99.90;;;;;;5044082;28;20389;-76
2022/11/27 11:10:49;;;;;;;20.20;7.40;;;7.40;99.90;;;;;;5060084;28;20028;-76
2022/11/27 11:13:19;;;;;;;12.18;6.60;;;7.50;99.90;;;;;;5076893;28;20288;-77
2022/11/27 11:15:52;;;;;;;7.53;4.82;;;8.00;99.90;;;;;;5058392;28;20052;-77
2022/11/27 11:18:32;;;;;;;6.88;3.92;;;8.00;99.90;;;;;;5060286;28;20020;-76
2022/11/27 11:21:04;;;;;;;5.10;3.75;;;8.20;99.90;;;;;;5058770;28;20040;-77
2022/11/27 11:23:37;;;;;;;9.13;4.03;;;8.50;99.90;;;;;;5059965;28;20034;-75
2022/11/27 11:26:23;;;;;;;27.95;11.57;;;8.50;99.90;;;;;;5059183;28;20233;-77
2022/11/27 11:28:52;;;;;;;10.55;5.13;;;8.50;99.90;;;;;;5059658;28;20028;-76
2022/11/27 11:31:20;;;;;;;8.40;4.38;;;8.50;99.90;;;;;;5072783;28;20028;-76
2022/11/27 11:33:57;;;;;;;11.27;6.05;;;8.50;99.90;;;;;;5079475;28;20028;-77
2022/11/27 11:36:22;;;;;;;7.13;4.18;;;8.40;99.90;;;;;;5059794;28;20446;-76
2022/11/27 11:38:49;;;;;;;8.52;4.53;;;8.40;99.90;;;;;;5047331;28;20028;-76
2022/11/27 11:41:17;;;;;;;9.30;4.10;;;8.30;99.90;;;;;;5074465;28;20028;-76
2022/11/27 11:44:00;;;;;;;12.23;6.75;;;8.30;99.90;;;;;;5059783;28;20020;-77
2022/11/27 11:46:29;;;;;;;10.73;4.93;;;8.50;99.90;;;;;;5065418;28;20041;-76
2022/11/27 11:49:23;;;;;;;7.93;4.55;;;8.50;99.90;;;;;;5073715;28;20258;-76
2022/11/27 11:52:00;;;;;;;6.22;3.15;;;8.50;99.90;;;;;;5065051;28;20041;-77
2022/11/27 11:54:58;;;;;;;9.43;4.20;;;8.20;99.90;;;;;;5076847;28;20277;-76
2022/11/27 11:57:43;;;;;;;8.52;3.55;;;8.40;99.90;;;;;;5062106;28;20029;-76
2022/11/27 12:00:16;;;;;;;14.45;6.75;;;8.40;99.90;;;;;;5055731;28;20039;-77
2022/11/27 12:02:46;;;;;;;7.07;4.25;;;;;;;;;;5056248;28;20021;-76
2022/11/27 12:05:23;;;;;;;7.50;4.47;;;8.90;99.90;;;;;;5056696;28;20017;-77
2022/11/27 12:07:59;;;;;;;8.55;5.50;;;9.00;99.90;;;;;;5057165;28;20044;-77
2022/11/27 12:10:44;;;;;;;7.15;4.65;;;9.10;99.90;;;;;;5055941;28;20068;-77
2022/11/27 12:13:25;;;;;;;6.10;3.15;;;;;;;;;;5056897;28;20083;-77
2022/11/27 12:16:05;;;;;;;5.72;3.35;;;9.00;99.90;;;;;;5056156;28;20166;-77
2022/11/27 12:18:30;;;;;;;;;;;8.90;99.90;;;;;;5055685;28;20079;-78
2022/11/27 12:21:22;;;;;;;6.00;3.88;;;9.00;99.90;;;;;;5056743;28;19909;-77
2022/11/27 12:24:19;;;;;;;7.00;3.45;;;8.90;99.90;;;;;;5055577;28;20024;-78
2022/11/27 12:27:13;;;;;;;8.18;3.45;;;8.90;99.90;;;;;;5057396;28;20033;-76
2022/11/27 12:29:50;;;;;;;5.15;3.35;;;8.70;99.90;;;;;;5055282;28;20029;-76
2022/11/27 12:32:19;;;;;;;7.93;3.45;;;8.70;99.90;;;;;;5056703;28;20087;-76
2022/11/27 12:35:09;;;;;;;9.00;4.07;;;8.50;99.90;;;;;;5059635;28;20056;-76
2022/11/27 12:38:01;;;;;;;9.60;4.13;;;8.40;99.90;;;;;;5076032;28;20024;-76
2022/11/27 12:40:43;;;;;;;5.95;3.65;;;8.30;99.90;;;;;;5079146;28;20037;-76
2022/11/27 12:43:25;;;;;;;6.18;3.45;;;8.40;99.90;;;;;;5075558;28;20027;-78
2022/11/27 12:46:08;;;;;;;9.73;4.70;;;8.30;99.90;;;;;;5063903;28;20256;-76
2022/11/27 12:48:41;;;;;;;5.00;3.35;;;8.40;99.90;;;;;;5060609;28;20024;-76
2022/11/27 12:51:23;;;;;;;7.57;4.00;;;8.50;99.90;;;;;;5059165;28;20056;-76
2022/11/27 12:54:01;;;;;;;9.38;3.80;;;8.50;99.90;;;;;;5061042;28;20045;-76
2022/11/27 12:56:38;;;;;;;6.30;3.95;;;8.30;99.90;;;;;;5060938;28;20085;-76
2022/11/27 12:59:24;;;;;;;5.32;4.03;;;8.30;99.90;;;;;;5060723;28;20048;-76
2022/11/27 13:02:06;;;;;;;5.88;3.40;;;8.20;99.90;;;;;;5060170;28;20024;-76
2022/11/27 13:04:40;;;;;;;5.28;3.78;;;8.10;99.90;;;;;;5059234;28;20378;-76
2022/11/27 13:07:16;;;;;;;5.03;3.22;;;8.10;99.90;;;;;;5058214;28;20143;-76
2022/11/27 13:10:03;;;;;;;12.10;4.25;;;8.10;99.90;;;;;;5059425;28;20029;-76